Time;durP1;ratioP1;P1;durP2;ratioP2;P2;SDS_P1;SDS_P2;PMS_P1;PMS_P2;Temp;Humidity;BMP_temperature;BMP_pressure;BME280_temperature;BME280_humidity;BME280_pressure;Samples;Min_cycle;Max_cycle;Signal;HPM_P1;HPM_P2
2023/06/19 00:01:19;;;;;;;9.82;6.32;;;20.20;85.70;;;;;;5014770;28;20382;-73
2023/06/19 00:03:45;;;;;;;10.82;6.18;;;20.20;85.60;;;;;;5013263;28;20038;-74
2023/06/19 00:06:12;;;;;;;9.57;5.68;;;20.20;85.70;;;;;;5012441;28;20034;-74
2023/06/19 00:08:41;;;;;;;10.10;6.13;;;20.30;85.70;;;;;;5013823;28;20156;-74
2023/06/19 00:11:06;;;;;;;9.25;6.38;;;20.20;85.60;;;;;;5009901;28;20042;-74
2023/06/19 00:13:33;;;;;;;8.93;5.93;;;20.20;85.90;;;;;;5019571;28;20037;-74
2023/06/19 00:16:00;;;;;;;8.85;5.65;;;20.30;85.90;;;;;;5012560;28;20026;-74
2023/06/19 00:18:26;;;;;;;8.10;5.55;;;20.30;85.80;;;;;;5013556;28;20056;-74
2023/06/19 00:20:54;;;;;;;9.85;6.00;;;20.40;85.60;;;;;;5018363;28;20436;-74
2023/06/19 00:23:19;;;;;;;8.15;5.43;;;20.30;85.70;;;;;;5013988;28;20080;-75
2023/06/19 00:25:45;;;;;;;8.48;5.72;;;20.30;85.80;;;;;;5015619;28;20620;-74
2023/06/19 00:28:13;;;;;;;9.52;6.28;;;20.30;85.60;;;;;;5022734;28;20444;-75
2023/06/19 00:30:39;;;;;;;8.70;6.35;;;20.30;85.60;;;;;;5020870;28;20029;-73
2023/06/19 00:33:05;;;;;;;12.23;7.57;;;20.20;85.60;;;;;;5013391;28;20034;-74
2023/06/19 00:35:31;;;;;;;11.70;8.35;;;20.20;85.50;;;;;;5020025;28;20029;-74
2023/06/19 00:38:00;;;;;;;12.02;9.45;;;20.20;84.80;;;;;;5016677;28;20152;-75
2023/06/19 00:40:31;;;;;;;11.93;9.35;;;20.10;84.10;;;;;;5017335;28;20049;-74
2023/06/19 00:42:57;;;;;;;10.93;8.65;;;20.10;84.20;;;;;;5017016;28;20112;-73
2023/06/19 00:45:24;;;;;;;9.85;7.95;;;20.20;84.10;;;;;;5020130;28;20044;-73
2023/06/19 00:47:54;;;;;;;11.07;8.13;;;20.10;83.70;;;;;;5020440;28;20052;-73
2023/06/19 00:50:21;;;;;;;10.35;7.60;;;20.20;83.50;;;;;;5024040;28;20033;-73
2023/06/19 00:52:46;;;;;;;9.70;7.63;;;20.20;83.30;;;;;;5044484;28;20090;-73
2023/06/19 00:55:14;;;;;;;11.07;7.53;;;20.20;83.30;;;;;;5051596;28;20067;-73
2023/06/19 00:57:40;;;;;;;11.40;7.70;;;20.20;83.30;;;;;;5042147;28;20514;-73
2023/06/19 01:00:07;;;;;;;12.13;9.30;;;20.30;83.10;;;;;;5041749;28;20020;-73
2023/06/19 01:02:34;;;;;;;12.77;10.02;;;20.30;82.80;;;;;;5042329;28;20136;-73
2023/06/19 01:04:59;;;;;;;12.35;10.05;;;20.20;82.80;;;;;;5037912;28;20029;-73
2023/06/19 01:07:56;;;;;;;13.65;10.02;;;20.10;83.20;;;;;;5049393;28;20562;-73
2023/06/19 01:10:29;;;;;;;14.25;12.48;;;20.20;83.20;;;;;;5037382;28;20035;-73
2023/06/19 01:13:33;;;;;;;16.40;13.82;;;20.10;83.10;;;;;;5047421;28;20099;-73
2023/06/19 01:15:59;;;;;;;16.00;13.15;;;20.10;83.20;;;;;;5044225;28;20068;-73
2023/06/19 01:18:26;;;;;;;15.13;12.82;;;20.10;83.20;;;;;;5048994;28;20504;-73
2023/06/19 01:20:52;;;;;;;11.98;10.50;;;20.10;82.90;;;;;;5042812;28;20504;-73
2023/06/19 01:23:18;;;;;;;12.73;10.57;;;20.10;82.90;;;;;;5041675;28;20145;-73
2023/06/19 01:25:43;;;;;;;10.95;8.10;;;20.00;83.10;;;;;;5041926;28;20435;-73
2023/06/19 01:28:11;;;;;;;9.40;5.78;;;20.00;83.10;;;;;;5043775;28;20455;-73
2023/06/19 01:30:41;;;;;;;8.65;5.05;;;19.90;82.30;;;;;;5044696;28;20029;-73
2023/06/19 01:33:10;;;;;;;8.57;4.68;;;19.90;82.00;;;;;;5023846;28;20489;-73
2023/06/19 01:35:39;;;;;;;9.85;4.40;;;19.80;82.10;;;;;;5019357;28;20021;-73
2023/06/19 01:38:07;;;;;;;6.38;3.92;;;19.70;82.30;;;;;;5019492;28;20038;-72
2023/06/19 01:40:33;;;;;;;8.50;3.92;;;19.70;82.20;;;;;;5015897;28;20458;-73
2023/06/19 01:43:04;;;;;;;5.80;3.67;;;19.60;82.10;;;;;;5015962;28;20125;-73
2023/06/19 01:45:30;;;;;;;8.02;4.22;;;19.60;82.00;;;;;;5014372;28;20069;-72
2023/06/19 01:47:56;;;;;;;7.80;5.07;;;19.60;82.40;;;;;;5018949;28;20063;-73
2023/06/19 01:50:23;;;;;;;8.10;4.95;;;19.50;82.60;;;;;;5019409;28;20435;-74
2023/06/19 01:52:50;;;;;;;8.23;5.07;;;19.50;83.00;;;;;;5016522;28;20037;-73
2023/06/19 01:55:16;;;;;;;9.32;5.20;;;19.50;82.90;;;;;;5019256;28;20029;-73
2023/06/19 01:57:41;;;;;;;12.10;5.38;;;19.60;82.90;;;;;;5021107;28;20037;-73
2023/06/19 02:00:07;;;;;;;10.18;6.60;;;19.60;82.80;;;;;;5019707;28;20100;-73
2023/06/19 02:02:33;;;;;;;12.00;7.95;;;19.60;82.70;;;;;;5016692;28;20141;-72
2023/06/19 02:04:59;;;;;;;11.48;6.78;;;19.60;82.50;;;;;;5016968;28;20392;-73
2023/06/19 02:07:25;;;;;;;10.73;7.70;;;19.60;82.60;;;;;;5020415;28;20100;-74
2023/06/19 02:09:50;;;;;;;12.13;8.68;;;19.60;82.60;;;;;;5016718;28;20226;-73
2023/06/19 02:12:16;;;;;;;12.40;9.57;;;19.50;82.70;;;;;;5017191;28;20855;-73
2023/06/19 02:14:41;;;;;;;12.40;10.10;;;19.40;82.40;;;;;;5021579;28;20081;-72
2023/06/19 02:17:07;;;;;;;12.05;10.07;;;19.30;82.50;;;;;;5018460;28;20266;-72
2023/06/19 02:19:33;;;;;;;13.52;9.63;;;19.40;82.40;;;;;;5019135;28;20498;-74
2023/06/19 02:21:58;;;;;;;14.07;9.50;;;19.30;82.20;;;;;;5017088;28;20046;-74
2023/06/19 02:24:24;;;;;;;13.27;9.82;;;19.40;82.50;;;;;;5019926;28;20075;-73
2023/06/19 02:26:50;;;;;;;15.35;11.30;;;19.40;81.50;;;;;;5022233;28;20124;-73
2023/06/19 02:29:16;;;;;;;13.70;10.23;;;19.30;81.30;;;;;;5017627;28;20496;-74
2023/06/19 02:31:42;;;;;;;13.93;11.90;;;19.40;81.10;;;;;;5017033;28;20045;-73
2023/06/19 02:34:08;;;;;;;18.00;13.57;;;19.30;80.90;;;;;;5014584;28;20028;-74
2023/06/19 02:36:35;;;;;;;15.00;13.40;;;19.30;80.60;;;;;;5018386;28;20030;-74
2023/06/19 02:39:01;;;;;;;15.63;12.55;;;19.10;80.70;;;;;;5017396;28;20053;-74
2023/06/19 02:41:27;;;;;;;17.17;14.15;;;19.00;81.10;;;;;;5015965;28;20071;-74
2023/06/19 02:43:53;;;;;;;18.35;13.80;;;19.00;81.30;;;;;;5018832;28;20123;-73
2023/06/19 02:46:18;;;;;;;20.25;15.70;;;18.90;81.50;;;;;;5022294;28;20470;-73
2023/06/19 02:48:44;;;;;;;17.55;15.68;;;18.90;81.60;;;;;;5018322;28;20029;-74
2023/06/19 02:51:10;;;;;;;17.20;15.32;;;18.80;81.90;;;;;;5014896;28;20481;-74
2023/06/19 02:53:35;;;;;;;18.42;15.88;;;18.80;82.30;;;;;;5024524;28;20025;-73
2023/06/19 02:56:01;;;;;;;20.05;15.77;;;18.70;82.30;;;;;;5021853;28;20454;-74
2023/06/19 02:58:27;;;;;;;20.15;16.52;;;18.70;82.40;;;;;;5022626;28;20423;-73
2023/06/19 03:00:53;;;;;;;19.83;17.70;;;18.60;82.40;;;;;;5020628;28;20087;-74
2023/06/19 03:03:18;;;;;;;20.45;17.50;;;18.60;82.20;;;;;;5021719;28;20105;-73
2023/06/19 03:05:44;;;;;;;21.10;18.58;;;18.60;82.00;;;;;;5021512;28;20021;-73
2023/06/19 03:08:10;;;;;;;18.33;16.33;;;18.60;82.30;;;;;;5017349;28;20041;-73
2023/06/19 03:10:36;;;;;;;18.88;16.58;;;18.60;82.30;;;;;;5011494;28;20484;-73
2023/06/19 03:13:01;;;;;;;19.63;15.65;;;18.50;82.50;;;;;;5015609;28;20034;-72
2023/06/19 03:15:27;;;;;;;20.13;16.92;;;18.50;82.50;;;;;;5015592;28;20115;-73
2023/06/19 03:17:53;;;;;;;20.17;17.05;;;18.40;82.60;;;;;;5011634;28;20040;-73
2023/06/19 03:20:20;;;;;;;21.02;17.13;;;18.30;82.50;;;;;;5016719;28;20082;-74
2023/06/19 03:22:46;;;;;;;20.38;16.70;;;18.30;82.50;;;;;;5019972;28;20033;-74
2023/06/19 03:25:12;;;;;;;19.77;16.92;;;18.30;82.70;;;;;;5017374;28;20030;-75
2023/06/19 03:27:38;;;;;;;20.60;17.85;;;18.20;82.60;;;;;;5011975;28;20259;-75
2023/06/19 03:30:08;;;;;;;21.48;17.10;;;18.10;82.60;;;;;;5020088;28;20806;-74
2023/06/19 03:32:34;;;;;;;21.75;18.65;;;18.20;82.80;;;;;;5015666;28;20359;-74
2023/06/19 03:35:01;;;;;;;22.20;19.13;;;18.10;82.90;;;;;;5013302;28;20466;-73
2023/06/19 03:37:27;;;;;;;23.38;19.98;;;18.10;83.10;;;;;;5020934;28;20033;-73
2023/06/19 03:39:52;;;;;;;22.90;20.17;;;18.10;82.90;;;;;;5014863;28;20451;-73
2023/06/19 03:42:18;;;;;;;23.33;20.83;;;18.10;83.10;;;;;;5022321;28;20057;-73
2023/06/19 03:44:43;;;;;;;26.40;21.42;;;18.10;82.80;;;;;;5017800;28;20029;-73
2023/06/19 03:47:09;;;;;;;25.77;22.73;;;18.00;83.10;;;;;;5014414;28;20378;-74
2023/06/19 03:49:35;;;;;;;25.50;22.75;;;17.90;83.20;;;;;;5017425;28;20037;-73
2023/06/19 03:52:01;;;;;;;28.30;24.10;;;17.90;83.30;;;;;;5016579;28;20152;-73
2023/06/19 03:54:27;;;;;;;26.98;23.00;;;17.90;83.20;;;;;;5010205;28;20040;-73
2023/06/19 03:56:53;;;;;;;28.95;24.95;;;17.80;83.20;;;;;;5020701;28;20473;-73
2023/06/19 03:59:18;;;;;;;28.77;25.63;;;17.90;82.90;;;;;;5019334;28;20057;-73
2023/06/19 04:01:44;;;;;;;29.65;25.15;;;17.90;82.70;;;;;;5019731;28;20422;-74
2023/06/19 04:04:10;;;;;;;28.73;24.55;;;17.80;82.60;;;;;;5012532;28;20048;-74
2023/06/19 04:06:35;;;;;;;29.55;26.27;;;17.90;82.70;;;;;;5017825;28;20276;-72
2023/06/19 04:09:01;;;;;;;31.10;27.70;;;17.90;82.50;;;;;;5011710;28;20508;-74
2023/06/19 04:11:27;;;;;;;30.25;25.65;;;17.90;82.30;;;;;;5018930;28;20116;-73
2023/06/19 04:13:52;;;;;;;31.45;26.13;;;17.90;82.10;;;;;;5019884;28;20053;-74
2023/06/19 04:16:18;;;;;;;28.75;25.27;;;17.90;82.00;;;;;;5015153;28;20663;-73
2023/06/19 04:18:43;;;;;;;29.77;26.55;;;18.00;82.10;;;;;;5016984;28;20083;-73
2023/06/19 04:21:09;;;;;;;30.67;26.73;;;18.00;82.00;;;;;;5011648;28;20044;-73
2023/06/19 04:23:35;;;;;;;30.38;25.55;;;17.90;81.50;;;;;;5023688;28;20060;-74
2023/06/19 04:26:01;;;;;;;30.40;26.98;;;18.00;81.50;;;;;;5016724;28;20026;-73
2023/06/19 04:28:27;;;;;;;29.02;25.83;;;18.00;81.50;;;;;;5016136;28;20466;-73
2023/06/19 04:30:59;;;;;;;29.10;25.65;;;18.10;81.50;;;;;;5017002;28;20034;-73
2023/06/19 04:33:27;;;;;;;29.05;25.50;;;18.10;81.40;;;;;;5017922;28;20047;-73
2023/06/19 04:35:52;;;;;;;27.45;24.52;;;18.10;81.00;;;;;;5019926;28;20459;-73
2023/06/19 04:38:18;;;;;;;31.52;25.58;;;18.10;81.00;;;;;;5022856;28;20041;-73
2023/06/19 04:40:44;;;;;;;30.52;26.75;;;18.10;80.90;;;;;;5021502;28;20029;-73
2023/06/19 04:43:10;;;;;;;30.92;27.60;;;18.10;80.70;;;;;;5023516;28;20041;-74
2023/06/19 04:45:36;;;;;;;34.78;28.73;;;18.10;81.00;;;;;;5024242;28;20029;-73
2023/06/19 04:48:03;;;;;;;32.60;27.63;;;18.10;81.20;;;;;;5017901;28;20041;-74
2023/06/19 04:50:28;;;;;;;31.85;27.67;;;18.10;81.40;;;;;;5019475;28;20123;-74
2023/06/19 04:52:54;;;;;;;35.25;28.70;;;18.20;81.30;;;;;;5022271;28;20059;-73
2023/06/19 04:55:20;;;;;;;30.80;27.48;;;18.30;80.80;;;;;;5018592;28;20231;-73
2023/06/19 04:57:45;;;;;;;35.42;28.20;;;18.30;80.60;;;;;;5024438;28;20044;-73
2023/06/19 05:00:12;;;;;;;27.75;24.58;;;18.30;79.90;;;;;;5020132;28;20052;-74
2023/06/19 05:02:38;;;;;;;32.25;27.58;;;18.40;80.00;;;;;;5021876;28;20026;-73
2023/06/19 05:05:04;;;;;;;32.60;28.35;;;18.50;79.70;;;;;;5020151;28;20040;-74
2023/06/19 05:07:33;;;;;;;32.33;28.73;;;18.50;79.60;;;;;;5022086;28;20041;-73
2023/06/19 05:09:59;;;;;;;34.10;26.83;;;18.60;79.80;;;;;;5023259;28;20045;-72
2023/06/19 05:12:25;;;;;;;30.80;27.30;;;18.70;78.80;;;;;;5021273;28;20061;-74
2023/06/19 05:14:50;;;;;;;28.48;25.38;;;18.70;78.90;;;;;;5015113;28;20076;-73
2023/06/19 05:17:16;;;;;;;33.03;26.80;;;18.80;78.50;;;;;;5014732;28;20462;-74
2023/06/19 05:19:42;;;;;;;33.45;28.35;;;18.80;78.50;;;;;;5023405;28;20029;-73
2023/06/19 05:22:07;;;;;;;31.98;28.23;;;18.70;78.20;;;;;;5019166;28;20030;-74
2023/06/19 05:24:33;;;;;;;31.65;28.25;;;18.80;78.50;;;;;;5019754;28;20369;-74
2023/06/19 05:26:59;;;;;;;30.30;26.58;;;18.90;78.40;;;;;;5019107;28;20103;-74
2023/06/19 05:29:25;;;;;;;29.48;26.38;;;18.90;78.30;;;;;;5017897;28;20029;-73
2023/06/19 05:31:50;;;;;;;30.92;26.67;;;18.80;78.00;;;;;;5017463;28;20545;-72
2023/06/19 05:34:17;;;;;;;30.40;25.67;;;18.70;78.50;;;;;;5022923;28;20096;-72
2023/06/19 05:36:44;;;;;;;29.52;25.95;;;18.70;78.90;;;;;;5022623;28;20421;-72
2023/06/19 05:39:10;;;;;;;28.27;25.27;;;18.90;78.70;;;;;;5046563;28;20428;-71
2023/06/19 05:41:36;;;;;;;29.88;26.23;;;18.80;78.50;;;;;;5039242;28;20029;-71
2023/06/19 05:44:02;;;;;;;31.80;26.42;;;18.80;78.60;;;;;;5025601;28;20407;-71
2023/06/19 05:46:27;;;;;;;33.55;26.20;;;19.00;78.10;;;;;;5021557;28;20037;-72
2023/06/19 05:48:54;;;;;;;30.73;25.20;;;19.10;78.00;;;;;;5024883;28;20072;-72
2023/06/19 05:51:20;;;;;;;31.00;24.52;;;19.10;77.50;;;;;;5027373;28;20039;-72
2023/06/19 05:53:46;;;;;;;28.08;24.75;;;19.00;77.30;;;;;;5025635;28;20013;-72
2023/06/19 05:56:12;;;;;;;30.50;24.25;;;18.90;77.80;;;;;;5027845;28;20025;-72
2023/06/19 05:58:39;;;;;;;29.83;24.90;;;18.80;78.80;;;;;;5027441;28;20017;-72
2023/06/19 06:01:05;;;;;;;30.60;25.27;;;18.90;78.20;;;;;;5026393;28;20467;-72
2023/06/19 06:03:31;;;;;;;30.65;26.90;;;18.80;78.80;;;;;;5024430;28;20036;-72
2023/06/19 06:06:02;;;;;;;30.35;25.00;;;18.70;78.90;;;;;;5022647;28;20032;-74
2023/06/19 06:08:32;;;;;;;27.70;23.67;;;18.80;79.00;;;;;;5025051;28;20048;-74
2023/06/19 06:10:57;;;;;;;28.77;24.15;;;19.00;79.00;;;;;;5025727;28;20275;-72
2023/06/19 06:13:23;;;;;;;28.15;24.25;;;19.00;78.40;;;;;;5023455;28;20022;-73
2023/06/19 06:15:50;;;;;;;28.58;25.50;;;19.10;78.10;;;;;;5024090;28;20025;-72
2023/06/19 06:18:16;;;;;;;30.45;24.25;;;19.20;77.70;;;;;;5017999;28;20025;-72
2023/06/19 06:20:42;;;;;;;35.85;26.27;;;19.10;77.60;;;;;;5015628;28;20498;-73
2023/06/19 06:23:07;;;;;;;29.50;25.17;;;19.10;78.00;;;;;;5023071;28;20041;-73
2023/06/19 06:25:33;;;;;;;31.75;26.20;;;19.20;77.70;;;;;;5029093;28;20509;-72
2023/06/19 06:27:59;;;;;;;29.20;24.88;;;19.20;77.50;;;;;;5021271;28;20037;-73
2023/06/19 06:30:24;;;;;;;28.55;23.85;;;19.30;77.40;;;;;;5016120;28;20034;-73
2023/06/19 06:32:51;;;;;;;27.05;23.65;;;19.40;77.20;;;;;;5024711;28;20041;-73
2023/06/19 06:35:16;;;;;;;29.45;25.38;;;19.40;76.90;;;;;;5010831;28;20034;-73
2023/06/19 06:37:43;;;;;;;29.70;24.50;;;19.40;76.20;;;;;;5013203;28;20548;-72
2023/06/19 06:40:10;;;;;;;26.10;22.90;;;19.50;76.30;;;;;;5023201;28;20049;-72
2023/06/19 06:42:36;;;;;;;24.90;21.27;;;19.50;76.30;;;;;;5011559;28;20042;-73
2023/06/19 06:45:03;;;;;;;26.60;22.50;;;19.60;76.40;;;;;;5027461;28;20078;-75
2023/06/19 06:47:29;;;;;;;25.20;21.38;;;19.70;75.80;;;;;;5028655;28;20079;-75
2023/06/19 06:49:54;;;;;;;25.17;22.15;;;19.80;75.80;;;;;;5031812;28;20052;-74
2023/06/19 06:52:20;;;;;;;23.77;21.27;;;19.90;75.40;;;;;;5019911;28;20432;-73
2023/06/19 06:54:46;;;;;;;23.30;20.20;;;19.90;75.50;;;;;;5027266;28;20033;-74
2023/06/19 06:57:11;;;;;;;25.50;22.15;;;20.00;75.70;;;;;;5024157;28;20151;-74
2023/06/19 06:59:37;;;;;;;30.30;26.45;;;20.20;75.00;;;;;;5025072;28;20025;-74
2023/06/19 07:02:03;;;;;;;30.00;25.98;;;20.20;74.90;;;;;;5025323;28;20052;-75
2023/06/19 07:04:28;;;;;;;31.20;27.52;;;20.30;74.70;;;;;;5022426;28;20061;-74
2023/06/19 07:06:54;;;;;;;29.98;26.75;;;20.40;74.50;;;;;;5039218;28;20056;-73
2023/06/19 07:09:21;;;;;;;30.58;27.05;;;20.50;74.50;;;;;;5041114;28;20127;-73
2023/06/19 07:11:46;;;;;;;32.72;27.88;;;20.50;74.00;;;;;;5044065;28;20064;-74
2023/06/19 07:14:12;;;;;;;30.15;27.05;;;20.50;73.30;;;;;;5042206;28;20052;-74
2023/06/19 07:16:38;;;;;;;31.30;27.65;;;20.60;73.60;;;;;;5048868;28;20293;-73
2023/06/19 07:19:03;;;;;;;31.92;28.52;;;20.60;73.40;;;;;;5046312;28;20381;-74
2023/06/19 07:21:30;;;;;;;31.77;28.45;;;20.60;73.20;;;;;;5045112;28;20040;-73
2023/06/19 07:23:57;;;;;;;31.88;28.30;;;20.70;73.20;;;;;;5034552;28;20085;-73
2023/06/19 07:26:23;;;;;;;33.17;29.05;;;20.80;72.60;;;;;;5043577;28;20041;-74
2023/06/19 07:28:49;;;;;;;31.02;25.70;;;20.80;72.10;;;;;;5047365;28;20037;-73
2023/06/19 07:31:14;;;;;;;29.17;26.08;;;20.90;72.50;;;;;;5043573;28;20467;-74
2023/06/19 07:33:40;;;;;;;27.17;24.48;;;21.20;71.30;;;;;;5042084;28;20021;-74
2023/06/19 07:36:06;;;;;;;26.85;23.73;;;21.50;70.60;;;;;;5036494;28;20032;-74
2023/06/19 07:38:32;;;;;;;24.40;21.80;;;21.60;69.70;;;;;;5046465;28;20041;-74
2023/06/19 07:40:57;;;;;;;25.27;22.23;;;21.70;69.00;;;;;;5049167;28;20400;-73
2023/06/19 07:43:23;;;;;;;23.98;21.48;;;21.70;69.30;;;;;;5048283;28;20458;-73
2023/06/19 07:45:49;;;;;;;20.35;17.25;;;21.60;69.40;;;;;;5037463;28;20036;-75
2023/06/19 07:48:15;;;;;;;23.50;19.50;;;21.80;70.30;;;;;;5036263;28;20524;-74
2023/06/19 07:50:41;;;;;;;21.95;17.77;;;22.00;68.80;;;;;;5049331;28;20032;-74
2023/06/19 07:53:07;;;;;;;24.15;17.52;;;22.10;67.90;;;;;;5041711;28;20029;-73
2023/06/19 07:55:35;;;;;;;18.90;16.23;;;22.10;67.70;;;;;;5044279;28;20504;-76
2023/06/19 07:58:01;;;;;;;19.85;17.75;;;22.10;68.30;;;;;;5043446;28;20036;-74
2023/06/19 08:00:27;;;;;;;17.58;15.27;;;22.20;67.60;;;;;;5033696;28;20040;-74
2023/06/19 08:02:53;;;;;;;19.17;15.90;;;22.40;67.30;;;;;;5036443;28;20347;-74
2023/06/19 08:05:18;;;;;;;20.20;16.45;;;22.30;66.70;;;;;;5036836;28;20061;-75
2023/06/19 08:07:45;;;;;;;22.00;16.08;;;22.50;66.30;;;;;;5038885;28;20127;-75
2023/06/19 08:10:10;;;;;;;17.67;14.95;;;22.60;66.50;;;;;;5045900;28;20055;-76
2023/06/19 08:12:36;;;;;;;17.52;13.88;;;22.70;65.30;;;;;;5027779;28;20482;-74
2023/06/19 08:15:02;;;;;;;19.67;15.00;;;22.70;65.20;;;;;;5018451;28;20124;-74
2023/06/19 08:17:28;;;;;;;16.58;13.75;;;22.70;65.10;;;;;;5022949;28;20406;-74
2023/06/19 08:19:54;;;;;;;16.63;14.20;;;22.70;65.60;;;;;;5012683;28;20033;-73
2023/06/19 08:22:21;;;;;;;18.27;15.10;;;22.60;65.70;;;;;;5020853;28;20071;-74
2023/06/19 08:24:47;;;;;;;16.05;13.55;;;22.80;64.50;;;;;;5022609;28;20030;-74
2023/06/19 08:27:13;;;;;;;18.77;14.93;;;23.00;63.60;;;;;;5016941;28;20026;-73
2023/06/19 08:29:39;;;;;;;19.65;13.27;;;23.20;63.10;;;;;;5018801;28;20043;-74
2023/06/19 08:32:05;;;;;;;16.73;13.18;;;23.40;62.50;;;;;;5028623;28;20103;-74
2023/06/19 08:34:31;;;;;;;17.88;12.32;;;23.50;62.30;;;;;;5022277;28;20480;-76
2023/06/19 08:36:57;;;;;;;14.32;11.60;;;23.70;62.40;;;;;;5032714;28;20036;-74
2023/06/19 08:39:23;;;;;;;16.58;12.23;;;24.00;62.30;;;;;;5046636;28;20025;-75
2023/06/19 08:41:49;;;;;;;20.48;13.98;;;24.20;60.40;;;;;;5039352;28;20051;-74
2023/06/19 08:44:14;;;;;;;17.30;13.75;;;24.00;60.40;;;;;;5041605;28;20034;-76
2023/06/19 08:46:41;;;;;;;18.45;14.02;;;23.60;61.60;;;;;;5036567;28;20160;-77
2023/06/19 08:49:10;;;;;;;16.45;13.27;;;23.60;61.20;;;;;;5046358;28;20034;-75
2023/06/19 08:51:36;;;;;;;16.52;12.85;;;23.60;62.10;;;;;;5032590;28;20056;-76
2023/06/19 08:54:04;;;;;;;14.82;11.57;;;23.60;61.80;;;;;;5037933;28;20478;-78
2023/06/19 08:56:34;;;;;;;16.92;14.55;;;24.00;60.90;;;;;;5038067;28;20029;-77
2023/06/19 08:59:10;;;;;;;18.10;13.98;;;24.10;59.70;;;;;;5031397;28;20079;-80
2023/06/19 09:01:36;;;;;;;19.05;13.13;;;24.10;59.40;;;;;;5039898;28;20040;-79
2023/06/19 09:04:11;;;;;;;18.08;13.60;;;23.90;59.90;;;;;;5038161;28;20056;-77
2023/06/19 09:06:52;;;;;;;15.95;12.70;;;23.90;60.30;;;;;;5024379;28;20591;-77
2023/06/19 09:09:20;;;;;;;19.92;12.70;;;24.10;60.20;;;;;;5021162;28;20566;-80
2023/06/19 09:12:04;;;;;;;18.58;13.00;;;24.50;60.70;;;;;;5011694;28;20045;-76
2023/06/19 09:14:41;;;;;;;16.07;12.10;;;24.70;58.70;;;;;;5011252;28;20630;-82
2023/06/19 09:17:19;;;;;;;16.92;11.65;;;25.10;57.70;;;;;;5042225;28;20296;-79
2023/06/19 09:19:49;;;;;;;14.55;10.73;;;25.50;56.30;;;;;;5022450;28;20064;-75
2023/06/19 09:22:18;;;;;;;16.85;10.68;;;25.70;55.90;;;;;;5024165;28;20037;-78
2023/06/19 09:24:44;;;;;;;14.45;10.73;;;26.00;56.00;;;;;;5022286;28;20065;-77
2023/06/19 09:27:18;;;;;;;13.85;10.05;;;26.00;54.50;;;;;;5016485;28;20053;-75
2023/06/19 09:29:49;;;;;;;16.60;11.32;;;25.80;53.90;;;;;;5045402;28;20063;-75
2023/06/19 09:32:23;;;;;;;16.52;11.73;;;25.50;55.20;;;;;;5043529;28;20541;-75
2023/06/19 09:34:51;;;;;;;16.25;12.07;;;25.30;55.80;;;;;;5020062;28;20095;-76
2023/06/19 09:37:25;;;;;;;15.23;11.32;;;25.50;56.40;;;;;;5019228;28;20116;-77
2023/06/19 09:39:55;;;;;;;18.98;11.73;;;25.60;56.60;;;;;;5023527;28;20033;-76
2023/06/19 09:42:30;;;;;;;16.42;12.57;;;25.60;57.10;;;;;;5018678;28;20095;-76
2023/06/19 09:45:01;;;;;;;16.50;13.05;;;25.60;56.00;;;;;;5017377;28;20064;-74
2023/06/19 09:47:31;;;;;;;16.90;12.57;;;25.30;57.10;;;;;;5019105;28;20029;-77
2023/06/19 09:49:57;;;;;;;15.93;11.10;;;25.50;56.30;;;;;;5013809;28;20593;-74
2023/06/19 09:52:24;;;;;;;14.73;11.85;;;25.60;55.30;;;;;;5013663;28;20037;-76
2023/06/19 09:54:51;;;;;;;15.52;11.60;;;25.60;56.30;;;;;;5022766;28;20072;-75
2023/06/19 09:57:18;;;;;;;15.65;11.27;;;25.60;56.00;;;;;;5015726;28;20042;-76
2023/06/19 09:59:47;;;;;;;15.65;12.88;;;25.90;55.50;;;;;;5015319;28;20021;-75
2023/06/19 10:02:15;;;;;;;14.32;11.63;;;26.20;54.90;;;;;;5010545;28;20542;-74
2023/06/19 10:04:45;;;;;;;17.73;12.73;;;26.40;53.80;;;;;;5021871;28;20032;-73
2023/06/19 10:07:27;;;;;;;15.80;12.15;;;26.40;53.40;;;;;;5015062;28;20490;-75
2023/06/19 10:10:26;;;;;;;17.50;13.48;;;26.60;53.30;;;;;;5022462;28;20097;-74
2023/06/19 10:12:57;;;;;;;17.15;13.45;;;26.70;52.60;;;;;;5031464;28;20410;-77
2023/06/19 10:15:25;;;;;;;19.60;13.95;;;26.70;53.00;;;;;;5011298;28;20045;-78
2023/06/19 10:18:00;;;;;;;16.13;13.07;;;26.70;53.50;;;;;;5020823;28;20116;-77
2023/06/19 10:20:25;;;;;;;15.68;12.35;;;26.80;53.60;;;;;;5018243;28;20434;-78
2023/06/19 10:22:52;;;;;;;13.27;10.27;;;26.60;53.20;;;;;;5017661;28;20029;-80
2023/06/19 10:25:23;;;;;;;14.32;11.35;;;26.90;52.50;;;;;;5016803;28;20030;-75
2023/06/19 10:27:52;;;;;;;14.73;11.82;;;27.10;51.60;;;;;;5015418;28;20042;-76
2023/06/19 10:30:19;;;;;;;20.35;12.80;;;26.60;52.70;;;;;;5020218;28;20120;-77
2023/06/19 10:32:48;;;;;;;16.42;13.10;;;26.80;52.80;;;;;;5009721;28;20048;-76
2023/06/19 10:35:15;;;;;;;17.15;11.93;;;26.80;53.30;;;;;;5016419;28;20030;-76
2023/06/19 10:37:41;;;;;;;17.13;12.18;;;26.50;53.40;;;;;;5007817;28;20048;-78
2023/06/19 10:40:09;;;;;;;15.65;11.20;;;26.50;52.70;;;;;;5007423;28;20025;-80
2023/06/19 10:42:39;;;;;;;13.85;10.95;;;26.80;52.80;;;;;;5004390;28;20042;-79
2023/06/19 10:45:06;;;;;;;15.18;11.10;;;27.10;51.20;;;;;;5009565;28;20037;-78
2023/06/19 10:47:33;;;;;;;16.02;12.35;;;27.20;51.30;;;;;;5009009;28;20119;-75
2023/06/19 10:49:58;;;;;;;16.75;12.52;;;27.30;50.90;;;;;;5009082;28;20528;-74
2023/06/19 10:52:24;;;;;;;14.23;10.63;;;27.60;50.30;;;;;;5007643;28;20042;-74
2023/06/19 10:54:57;;;;;;;13.27;10.68;;;27.60;50.80;;;;;;5008827;28;20084;-74
2023/06/19 10:57:30;;;;;;;15.20;11.30;;;27.60;49.70;;;;;;5006420;28;20063;-75
2023/06/19 10:59:56;;;;;;;14.63;9.80;;;27.50;49.10;;;;;;5006698;28;20022;-75
2023/06/19 11:02:22;;;;;;;16.38;10.85;;;27.30;49.50;;;;;;5008660;28;20030;-75
2023/06/19 11:04:48;;;;;;;15.73;11.98;;;27.30;50.20;;;;;;5007037;28;20054;-75
2023/06/19 11:07:14;;;;;;;14.98;12.90;;;27.20;50.90;;;;;;5010155;28;20070;-74
2023/06/19 11:09:44;;;;;;;16.42;12.40;;;27.30;50.40;;;;;;5007277;28;20049;-75
2023/06/19 11:12:10;;;;;;;14.52;10.48;;;27.20;51.50;;;;;;5006728;28;20045;-73
2023/06/19 11:14:39;;;;;;;11.93;9.80;;;27.60;51.10;;;;;;5010368;28;20054;-73
2023/06/19 11:17:06;;;;;;;16.30;10.60;;;27.70;49.40;;;;;;5008440;28;20074;-73
2023/06/19 11:19:33;;;;;;;13.18;10.43;;;27.80;49.20;;;;;;5008362;28;20098;-73
2023/06/19 11:22:02;;;;;;;11.52;8.88;;;27.80;49.10;;;;;;5007761;28;20053;-73
2023/06/19 11:24:28;;;;;;;11.82;9.20;;;27.70;49.90;;;;;;5009710;28;20091;-73
2023/06/19 11:26:58;;;;;;;13.13;10.05;;;27.80;48.90;;;;;;5008418;28;20056;-73
2023/06/19 11:29:31;;;;;;;14.15;9.48;;;27.60;48.60;;;;;;5011553;28;21472;-74
2023/06/19 11:32:12;;;;;;;12.73;8.73;;;27.90;48.80;;;;;;5008385;28;20044;-74
2023/06/19 11:34:38;;;;;;;12.73;9.10;;;27.60;48.60;;;;;;5007929;28;20064;-75
2023/06/19 11:37:21;;;;;;;12.52;9.05;;;27.40;49.70;;;;;;5014204;28;20030;-75
2023/06/19 11:39:48;;;;;;;12.77;8.27;;;27.70;48.90;;;;;;5015148;28;20040;-75
2023/06/19 11:42:17;;;;;;;11.98;8.02;;;28.00;48.60;;;;;;5014899;28;20068;-76
2023/06/19 11:45:03;;;;;;;10.75;7.88;;;28.10;47.10;;;;;;5011928;28;20037;-75
2023/06/19 11:47:33;;;;;;;10.60;8.77;;;28.20;47.90;;;;;;5013704;28;20042;-74
2023/06/19 11:50:00;;;;;;;13.98;9.18;;;28.30;47.80;;;;;;5015558;28;20064;-74
2023/06/19 11:52:25;;;;;;;11.55;8.52;;;28.40;48.30;;;;;;5015749;28;20045;-75
2023/06/19 11:54:51;;;;;;;13.25;8.35;;;28.60;47.70;;;;;;5016703;28;20032;-75
2023/06/19 11:57:17;;;;;;;13.20;9.48;;;28.50;48.30;;;;;;5012469;28;20045;-74
2023/06/19 11:59:42;;;;;;;11.15;8.77;;;28.70;47.40;;;;;;5013363;28;20255;-73
2023/06/19 12:02:09;;;;;;;13.57;8.50;;;28.80;46.30;;;;;;5008911;28;20035;-74
2023/06/19 12:04:35;;;;;;;12.85;8.40;;;28.80;46.40;;;;;;5016204;28;20781;-74
2023/06/19 12:07:01;;;;;;;11.05;7.70;;;28.90;46.10;;;;;;5019891;28;20029;-75
2023/06/19 12:09:30;;;;;;;14.00;8.15;;;29.10;46.10;;;;;;5018146;28;20060;-76
2023/06/19 12:11:55;;;;;;;11.10;7.93;;;29.40;45.60;;;;;;5015183;28;20763;-75
2023/06/19 12:14:21;;;;;;;13.45;8.43;;;29.30;43.90;;;;;;5017374;28;20045;-75
2023/06/19 12:16:47;;;;;;;10.27;7.50;;;29.30;43.80;;;;;;5016472;28;20041;-76
2023/06/19 12:19:13;;;;;;;9.52;7.00;;;29.10;43.90;;;;;;5010208;28;20033;-76
2023/06/19 12:21:39;;;;;;;11.48;8.15;;;29.10;45.10;;;;;;5014456;28;20056;-75
2023/06/19 12:24:05;;;;;;;13.05;7.88;;;28.90;45.00;;;;;;5014634;28;20059;-75
2023/06/19 12:26:36;;;;;;;10.25;7.93;;;28.50;45.40;;;;;;5017748;28;20045;-77
2023/06/19 12:29:03;;;;;;;10.88;7.28;;;28.30;45.50;;;;;;5010748;28;20022;-77
2023/06/19 12:31:29;;;;;;;10.63;7.22;;;28.30;45.60;;;;;;5012220;28;20038;-75